sensor_id;sensor_type;location;lat;lon;timestamp;pressure;altitude;pressure_sealevel;temperature;humidity
59829;BME280;45708;51.848;107.620;2023-03-31T00:00:29;92858.75;;;3.27;52.90
59829;BME280;45708;51.848;107.620;2023-03-31T00:05:29;92881.84;;;3.98;51.81
59829;BME280;45708;51.848;107.620;2023-03-31T00:10:32;92881.88;;;5.06;49.51
59829;BME280;45708;51.848;107.620;2023-03-31T00:15:33;92882.34;;;5.97;46.83
59829;BME280;45708;51.848;107.620;2023-03-31T00:20:33;92893.94;;;5.62;47.21
59829;BME280;45708;51.848;107.620;2023-03-31T00:25:35;92894.53;;;4.80;48.40
59829;BME280;45708;51.848;107.620;2023-03-31T00:30:38;92908.41;;;4.64;49.00
59829;BME280;45708;51.848;107.620;2023-03-31T00:35:39;92911.56;;;6.05;47.55
59829;BME280;45708;51.848;107.620;2023-03-31T00:40:44;92911.41;;;9.02;42.00
59829;BME280;45708;51.848;107.620;2023-03-31T00:45:45;92910.56;;;8.76;41.30
59829;BME280;45708;51.848;107.620;2023-03-31T00:50:52;92935.53;;;6.90;45.41
59829;BME280;45708;51.848;107.620;2023-03-31T00:55:58;92836.97;;;5.31;50.76
59829;BME280;45708;51.848;107.620;2023-03-31T01:01:04;92788.44;;;5.23;52.19
59829;BME280;45708;51.848;107.620;2023-03-31T01:06:05;92818.56;;;5.26;52.99
59829;BME280;45708;51.848;107.620;2023-03-31T01:11:09;92895.88;;;5.50;53.83
59829;BME280;45708;51.848;107.620;2023-03-31T01:16:15;93024.97;;;5.84;53.90
59829;BME280;45708;51.848;107.620;2023-03-31T01:27:12;93093.09;;;5.84;54.95
59829;BME280;45708;51.848;107.620;2023-03-31T01:32:41;93097.03;;;6.37;53.58
59829;BME280;45708;51.848;107.620;2023-03-31T01:59:27;92930.88;;;6.21;49.31
59829;BME280;45708;51.848;107.620;2023-03-31T02:04:37;93181.03;;;7.95;47.96
59829;BME280;45708;51.848;107.620;2023-03-31T02:09:42;93027.66;;;7.20;47.21
59829;BME280;45708;51.848;107.620;2023-03-31T02:14:48;93136.59;;;7.93;46.67
59829;BME280;45708;51.848;107.620;2023-03-31T02:19:52;93137.66;;;7.92;46.58
59829;BME280;45708;51.848;107.620;2023-03-31T02:24:55;92894.84;;;5.34;47.48
59829;BME280;45708;51.848;107.620;2023-03-31T02:30:01;93109.47;;;6.25;48.21
59829;BME280;45708;51.848;107.620;2023-03-31T02:35:04;93146.06;;;6.20;48.31
59829;BME280;45708;51.848;107.620;2023-03-31T02:40:10;93069.34;;;5.74;47.33
59829;BME280;45708;51.848;107.620;2023-03-31T02:50:55;93305.41;;;6.46;47.10
59829;BME280;45708;51.848;107.620;2023-03-31T02:56:20;93314.81;;;6.14;47.91
59829;BME280;45708;51.848;107.620;2023-03-31T03:06:51;93328.13;;;5.72;47.82
59829;BME280;45708;51.848;107.620;2023-03-31T03:17:59;93312.16;;;5.10;48.92
59829;BME280;45708;51.848;107.620;2023-03-31T03:23:01;93108.00;;;4.06;47.99
59829;BME280;45708;51.848;107.620;2023-03-31T03:28:05;93211.53;;;4.54;47.81
59829;BME280;45708;51.848;107.620;2023-03-31T03:33:06;93240.84;;;4.44;47.32
59829;BME280;45708;51.848;107.620;2023-03-31T03:38:07;93310.59;;;4.85;46.48
59829;BME280;45708;51.848;107.620;2023-03-31T03:43:08;93227.22;;;3.89;46.82
59829;BME280;45708;51.848;107.620;2023-03-31T03:53:20;93241.69;;;3.61;46.26
59829;BME280;45708;51.848;107.620;2023-03-31T03:58:21;93233.34;;;3.23;46.75
59829;BME280;45708;51.848;107.620;2023-03-31T04:03:23;93430.59;;;4.52;46.69
59829;BME280;45708;51.848;107.620;2023-03-31T04:08:25;93346.06;;;3.98;46.01
59829;BME280;45708;51.848;107.620;2023-03-31T04:13:26;93461.31;;;4.38;46.52
59829;BME280;45708;51.848;107.620;2023-03-31T04:18:27;93348.34;;;3.40;46.38
59829;BME280;45708;51.848;107.620;2023-03-31T04:23:49;93313.34;;;3.11;46.33
59829;BME280;45708;51.848;107.620;2023-03-31T04:28:49;93512.25;;;3.81;47.19
59829;BME280;45708;51.848;107.620;2023-03-31T04:33:57;93349.31;;;2.84;47.52
59829;BME280;45708;51.848;107.620;2023-03-31T04:38:58;93453.34;;;3.17;48.24
59829;BME280;45708;51.848;107.620;2023-03-31T04:43:59;93509.19;;;3.59;47.33
59829;BME280;45708;51.848;107.620;2023-03-31T04:49:01;93299.25;;;1.94;47.40
59829;BME280;45708;51.848;107.620;2023-03-31T04:54:05;93547.63;;;3.27;47.60
59829;BME280;45708;51.848;107.620;2023-03-31T05:04:34;93547.03;;;2.93;47.27
59829;BME280;45708;51.848;107.620;2023-03-31T05:09:55;93603.06;;;3.22;47.28
59829;BME280;45708;51.848;107.620;2023-03-31T05:35:44;93454.03;;;1.13;47.73
59829;BME280;45708;51.848;107.620;2023-03-31T05:45:56;93478.22;;;1.47;47.47
59829;BME280;45708;51.848;107.620;2023-03-31T05:56:13;93573.47;;;1.74;46.35
59829;BME280;45708;51.848;107.620;2023-03-31T06:01:16;93754.94;;;2.66;46.54
59829;BME280;45708;51.848;107.620;2023-03-31T06:06:17;93719.19;;;2.80;46.47
59829;BME280;45708;51.848;107.620;2023-03-31T06:11:20;93658.72;;;2.38;45.70
59829;BME280;45708;51.848;107.620;2023-03-31T06:16:25;93740.16;;;2.21;47.09
59829;BME280;45708;51.848;107.620;2023-03-31T06:21:26;93673.97;;;1.49;47.78
59829;BME280;45708;51.848;107.620;2023-03-31T06:31:37;93637.69;;;0.60;48.19
59829;BME280;45708;51.848;107.620;2023-03-31T06:36:42;93586.53;;;0.13;48.16
59829;BME280;45708;51.848;107.620;2023-03-31T06:52:18;93764.72;;;1.17;48.22
59829;BME280;45708;51.848;107.620;2023-03-31T06:57:20;93780.88;;;1.47;47.38
59829;BME280;45708;51.848;107.620;2023-03-31T07:12:41;93783.44;;;1.00;48.20
59829;BME280;45708;51.848;107.620;2023-03-31T07:22:53;93766.22;;;0.57;49.01
59829;BME280;45708;51.848;107.620;2023-03-31T07:33:04;93926.22;;;1.57;48.63
59829;BME280;45708;51.848;107.620;2023-03-31T07:38:07;93822.31;;;0.45;49.22
59829;BME280;45708;51.848;107.620;2023-03-31T11:45:54;94418.00;;;-2.59;63.46
59829;BME280;45708;51.848;107.620;2023-03-31T11:51:01;94437.41;;;-2.55;61.69
59829;BME280;45708;51.848;107.620;2023-03-31T11:56:03;94448.56;;;-2.88;61.87
59829;BME280;45708;51.848;107.620;2023-03-31T12:06:11;94450.25;;;-3.23;62.23
59829;BME280;45708;51.848;107.620;2023-03-31T12:21:57;94476.41;;;-3.61;62.00
59829;BME280;45708;51.848;107.620;2023-03-31T12:27:16;94472.00;;;-3.69;61.39
59829;BME280;45708;51.848;107.620;2023-03-31T12:32:20;94497.59;;;-3.76;61.04
59829;BME280;45708;51.848;107.620;2023-03-31T12:48:54;94552.56;;;-3.93;60.94
59829;BME280;45708;51.848;107.620;2023-03-31T12:59:17;94558.16;;;-3.97;60.70
59829;BME280;45708;51.848;107.620;2023-03-31T13:04:26;94566.88;;;-4.08;61.11
59829;BME280;45708;51.848;107.620;2023-03-31T13:14:37;94590.72;;;-3.96;61.01
59829;BME280;45708;51.848;107.620;2023-03-31T13:19:40;94600.53;;;-4.00;60.57
59829;BME280;45708;51.848;107.620;2023-03-31T13:24:41;94642.84;;;-3.93;60.40
59829;BME280;45708;51.848;107.620;2023-03-31T13:29:43;94657.81;;;-3.96;58.94
59829;BME280;45708;51.848;107.620;2023-03-31T14:06:43;94667.66;;;-4.19;56.66
59829;BME280;45708;51.848;107.620;2023-03-31T14:11:47;94706.19;;;-4.28;57.57
59829;BME280;45708;51.848;107.620;2023-03-31T14:17:01;94736.06;;;-4.35;57.46
59829;BME280;45708;51.848;107.620;2023-03-31T14:27:40;94753.44;;;-4.37;56.58
59829;BME280;45708;51.848;107.620;2023-03-31T14:38:18;94772.69;;;-4.41;55.86
59829;BME280;45708;51.848;107.620;2023-03-31T14:43:22;94766.72;;;-4.51;55.42
59829;BME280;45708;51.848;107.620;2023-03-31T14:48:23;94773.78;;;-4.53;54.72
59829;BME280;45708;51.848;107.620;2023-03-31T14:53:24;94783.56;;;-4.56;54.96
59829;BME280;45708;51.848;107.620;2023-03-31T14:58:29;94798.50;;;-4.60;54.37
59829;BME280;45708;51.848;107.620;2023-03-31T15:03:33;94777.88;;;-4.60;54.99
59829;BME280;45708;51.848;107.620;2023-03-31T15:08:35;94782.19;;;-4.70;53.22
59829;BME280;45708;51.848;107.620;2023-03-31T15:13:44;94783.78;;;-4.88;54.50
59829;BME280;45708;51.848;107.620;2023-03-31T15:18:46;94769.25;;;-4.90;54.04
59829;BME280;45708;51.848;107.620;2023-03-31T15:23:50;94772.66;;;-4.99;53.31
59829;BME280;45708;51.848;107.620;2023-03-31T15:28:55;94777.41;;;-4.94;53.89
59829;BME280;45708;51.848;107.620;2023-03-31T15:33:58;94787.53;;;-5.02;53.17
59829;BME280;45708;51.848;107.620;2023-03-31T15:39:00;94789.69;;;-5.07;53.65
59829;BME280;45708;51.848;107.620;2023-03-31T15:44:05;94822.69;;;-5.22;53.41
59829;BME280;45708;51.848;107.620;2023-03-31T15:49:19;94815.94;;;-5.23;52.77
59829;BME280;45708;51.848;107.620;2023-03-31T15:54:36;94828.13;;;-5.25;52.66
59829;BME280;45708;51.848;107.620;2023-03-31T15:59:51;94826.50;;;-5.26;52.92
59829;BME280;45708;51.848;107.620;2023-03-31T16:04:57;94840.69;;;-5.32;52.44
59829;BME280;45708;51.848;107.620;2023-03-31T16:10:04;94854.38;;;-5.31;52.12
59829;BME280;45708;51.848;107.620;2023-03-31T16:15:09;94856.22;;;-5.43;50.84
59829;BME280;45708;51.848;107.620;2023-03-31T16:20:19;94858.84;;;-5.33;50.15
59829;BME280;45708;51.848;107.620;2023-03-31T16:25:22;94844.41;;;-5.45;50.09
59829;BME280;45708;51.848;107.620;2023-03-31T16:30:35;94859.13;;;-5.57;49.99
59829;BME280;45708;51.848;107.620;2023-03-31T16:35:42;94874.44;;;-5.56;49.97
59829;BME280;45708;51.848;107.620;2023-03-31T16:40:48;94898.09;;;-5.62;49.43
59829;BME280;45708;51.848;107.620;2023-03-31T16:45:54;94911.66;;;-5.60;49.44
59829;BME280;45708;51.848;107.620;2023-03-31T16:50:57;94920.94;;;-5.47;48.20
59829;BME280;45708;51.848;107.620;2023-03-31T16:55:58;94939.09;;;-5.49;48.86
59829;BME280;45708;51.848;107.620;2023-03-31T17:00:59;94954.25;;;-5.67;48.39
59829;BME280;45708;51.848;107.620;2023-03-31T17:06:05;94977.81;;;-5.83;48.44
59829;BME280;45708;51.848;107.620;2023-03-31T17:11:11;94990.56;;;-5.81;48.33
59829;BME280;45708;51.848;107.620;2023-03-31T17:16:12;95012.84;;;-5.91;48.66
59829;BME280;45708;51.848;107.620;2023-03-31T17:21:15;95012.81;;;-5.80;48.21
59829;BME280;45708;51.848;107.620;2023-03-31T17:26:16;95013.50;;;-5.78;46.82
59829;BME280;45708;51.848;107.620;2023-03-31T17:31:18;95027.59;;;-5.93;47.74
59829;BME280;45708;51.848;107.620;2023-03-31T17:36:19;95033.22;;;-5.99;47.93
59829;BME280;45708;51.848;107.620;2023-03-31T17:41:20;95029.97;;;-6.13;48.59
59829;BME280;45708;51.848;107.620;2023-03-31T17:46:21;95040.94;;;-6.10;48.32
59829;BME280;45708;51.848;107.620;2023-03-31T17:51:22;95034.78;;;-6.19;48.23
59829;BME280;45708;51.848;107.620;2023-03-31T17:56:23;95035.09;;;-6.24;47.05
59829;BME280;45708;51.848;107.620;2023-03-31T18:01:24;95043.28;;;-6.19;47.18
59829;BME280;45708;51.848;107.620;2023-03-31T18:06:25;95046.09;;;-6.33;47.03
59829;BME280;45708;51.848;107.620;2023-03-31T18:11:26;95049.38;;;-6.31;46.76
59829;BME280;45708;51.848;107.620;2023-03-31T18:16:28;95048.66;;;-6.44;47.96
59829;BME280;45708;51.848;107.620;2023-03-31T18:21:29;95033.13;;;-6.54;47.84
59829;BME280;45708;51.848;107.620;2023-03-31T18:26:30;95037.34;;;-6.53;47.43
59829;BME280;45708;51.848;107.620;2023-03-31T18:31:31;95026.22;;;-6.64;47.50
59829;BME280;45708;51.848;107.620;2023-03-31T18:36:32;95047.03;;;-6.67;47.08
59829;BME280;45708;51.848;107.620;2023-03-31T18:41:33;95047.03;;;-6.67;47.19
59829;BME280;45708;51.848;107.620;2023-03-31T18:46:34;95057.97;;;-6.88;47.08
59829;BME280;45708;51.848;107.620;2023-03-31T18:51:35;95079.69;;;-6.92;47.55
59829;BME280;45708;51.848;107.620;2023-03-31T18:56:36;95101.50;;;-6.97;47.37
59829;BME280;45708;51.848;107.620;2023-03-31T19:01:36;95109.91;;;-6.95;47.47
59829;BME280;45708;51.848;107.620;2023-03-31T19:06:37;95103.13;;;-6.96;47.29
59829;BME280;45708;51.848;107.620;2023-03-31T19:11:38;95096.44;;;-7.10;47.44
59829;BME280;45708;51.848;107.620;2023-03-31T19:16:39;95092.34;;;-7.13;47.35
59829;BME280;45708;51.848;107.620;2023-03-31T19:21:40;95085.34;;;-7.11;46.97
59829;BME280;45708;51.848;107.620;2023-03-31T19:26:40;95094.03;;;-7.24;46.50
59829;BME280;45708;51.848;107.620;2023-03-31T19:31:41;95077.28;;;-7.41;47.37
59829;BME280;45708;51.848;107.620;2023-03-31T19:36:42;95098.97;;;-7.45;47.60
59829;BME280;45708;51.848;107.620;2023-03-31T19:41:43;95097.00;;;-7.42;47.40
59829;BME280;45708;51.848;107.620;2023-03-31T19:46:44;95106.25;;;-7.39;47.47
59829;BME280;45708;51.848;107.620;2023-03-31T19:51:45;95121.84;;;-7.42;47.61
59829;BME280;45708;51.848;107.620;2023-03-31T19:56:45;95120.66;;;-7.49;47.16
59829;BME280;45708;51.848;107.620;2023-03-31T20:01:46;95135.88;;;-7.59;47.76
59829;BME280;45708;51.848;107.620;2023-03-31T20:06:47;95137.28;;;-7.55;47.68
59829;BME280;45708;51.848;107.620;2023-03-31T20:11:48;95139.41;;;-7.73;47.65
59829;BME280;45708;51.848;107.620;2023-03-31T20:16:49;95141.84;;;-7.71;48.23
59829;BME280;45708;51.848;107.620;2023-03-31T20:21:51;95154.59;;;-7.82;48.12
59829;BME280;45708;51.848;107.620;2023-03-31T20:26:52;95166.31;;;-7.78;48.57
59829;BME280;45708;51.848;107.620;2023-03-31T20:31:53;95176.56;;;-7.78;48.68
59829;BME280;45708;51.848;107.620;2023-03-31T20:36:54;95172.84;;;-7.74;48.24
59829;BME280;45708;51.848;107.620;2023-03-31T20:41:55;95176.13;;;-7.85;48.58
59829;BME280;45708;51.848;107.620;2023-03-31T20:46:55;95185.72;;;-8.00;48.68
59829;BME280;45708;51.848;107.620;2023-03-31T20:51:56;95202.41;;;-7.94;48.67
59829;BME280;45708;51.848;107.620;2023-03-31T20:56:57;95197.72;;;-8.00;48.99
59829;BME280;45708;51.848;107.620;2023-03-31T21:01:58;95218.41;;;-8.03;48.57
59829;BME280;45708;51.848;107.620;2023-03-31T21:06:58;95201.19;;;-8.14;49.12
59829;BME280;45708;51.848;107.620;2023-03-31T21:11:59;95198.44;;;-8.11;49.25
59829;BME280;45708;51.848;107.620;2023-03-31T21:17:00;95211.84;;;-8.07;48.75
59829;BME280;45708;51.848;107.620;2023-03-31T21:22:01;95215.94;;;-8.05;49.19
59829;BME280;45708;51.848;107.620;2023-03-31T21:27:01;95212.47;;;-8.16;48.77
59829;BME280;45708;51.848;107.620;2023-03-31T21:32:02;95230.09;;;-8.24;49.75
59829;BME280;45708;51.848;107.620;2023-03-31T21:37:03;95241.88;;;-8.22;49.12
59829;BME280;45708;51.848;107.620;2023-03-31T21:42:04;95256.94;;;-8.30;49.16
59829;BME280;45708;51.848;107.620;2023-03-31T21:47:06;95259.25;;;-8.38;49.54
59829;BME280;45708;51.848;107.620;2023-03-31T21:52:06;95256.78;;;-8.40;49.88
59829;BME280;45708;51.848;107.620;2023-03-31T21:57:07;95283.22;;;-8.39;49.97
59829;BME280;45708;51.848;107.620;2023-03-31T22:02:08;95292.53;;;-8.38;49.75
59829;BME280;45708;51.848;107.620;2023-03-31T22:07:09;95296.50;;;-8.60;50.47
59829;BME280;45708;51.848;107.620;2023-03-31T22:12:10;95300.34;;;-8.67;49.80
59829;BME280;45708;51.848;107.620;2023-03-31T22:17:10;95305.97;;;-8.62;50.89
59829;BME280;45708;51.848;107.620;2023-03-31T22:22:11;95309.13;;;-8.71;50.64
59829;BME280;45708;51.848;107.620;2023-03-31T22:27:12;95316.09;;;-8.73;50.69
59829;BME280;45708;51.848;107.620;2023-03-31T22:32:13;95310.97;;;-8.73;50.74
59829;BME280;45708;51.848;107.620;2023-03-31T22:37:14;95329.09;;;-8.76;50.45
59829;BME280;45708;51.848;107.620;2023-03-31T22:42:14;95333.44;;;-8.64;50.41
59829;BME280;45708;51.848;107.620;2023-03-31T22:47:15;95349.50;;;-8.62;50.36
59829;BME280;45708;51.848;107.620;2023-03-31T22:52:16;95267.84;;;-9.06;50.25
59829;BME280;45708;51.848;107.620;2023-03-31T22:57:17;95356.44;;;-8.49;50.50
59829;BME280;45708;51.848;107.620;2023-03-31T23:02:18;95339.09;;;-8.58;50.07
59829;BME280;45708;51.848;107.620;2023-03-31T23:07:19;95304.06;;;-8.85;50.98
59829;BME280;45708;51.848;107.620;2023-03-31T23:12:20;95378.28;;;-8.31;50.53
59829;BME280;45708;51.848;107.620;2023-03-31T23:17:20;95389.84;;;-8.11;50.64
59829;BME280;45708;51.848;107.620;2023-03-31T23:22:21;95360.19;;;-8.15;49.92
59829;BME280;45708;51.848;107.620;2023-03-31T23:27:22;95232.53;;;-8.74;49.18
59829;BME280;45708;51.848;107.620;2023-03-31T23:32:23;95387.41;;;-7.87;48.92
59829;BME280;45708;51.848;107.620;2023-03-31T23:37:24;95428.81;;;-6.90;47.74
59829;BME280;45708;51.848;107.620;2023-03-31T23:42:25;95418.84;;;-5.05;45.84
59829;BME280;45708;51.848;107.620;2023-03-31T23:47:26;95433.13;;;-2.96;43.47
59829;BME280;45708;51.848;107.620;2023-03-31T23:52:27;95392.19;;;-2.11;40.05
59829;BME280;45708;51.848;107.620;2023-03-31T23:57:28;95409.22;;;-1.41;38.19
